createdAt,value
2022-11-03T00:00:12.792Z,0.00
2022-11-03T00:01:10.434Z,0.00
2022-11-03T00:02:10.544Z,0.00
2022-11-03T00:03:10.651Z,0.00
2022-11-03T00:04:10.350Z,0.00
2022-11-03T00:05:10.328Z,0.00
2022-11-03T00:06:10.307Z,0.00
2022-11-03T00:07:10.287Z,0.00
2022-11-03T00:09:10.242Z,0.00
2022-11-03T00:10:10.230Z,0.00
2022-11-03T00:11:10.228Z,0.00
2022-11-03T00:12:10.185Z,0.00
2022-11-03T00:13:10.166Z,0.00
2022-11-03T00:14:10.177Z,0.00
2022-11-03T00:15:10.129Z,0.00
2022-11-03T00:16:10.106Z,0.00
2022-11-03T00:17:10.084Z,0.00
2022-11-03T00:18:10.064Z,0.00
2022-11-03T00:19:10.048Z,0.00
2022-11-03T00:20:10.023Z,0.00
2022-11-03T00:21:10.006Z,0.00
2022-11-03T00:22:09.989Z,0.00
2022-11-03T00:23:09.962Z,0.00
2022-11-03T00:24:09.944Z,0.00
2022-11-03T00:25:09.917Z,0.00
2022-11-03T00:26:09.901Z,0.00
2022-11-03T00:27:09.936Z,0.00
2022-11-03T00:28:09.866Z,0.00
2022-11-03T00:29:09.842Z,0.00
2022-11-03T00:30:09.818Z,0.00
2022-11-03T00:31:09.798Z,0.00
2022-11-03T00:32:09.778Z,0.00
2022-11-03T00:33:09.760Z,0.00
2022-11-03T00:34:09.743Z,0.00
2022-11-03T00:35:09.724Z,0.00
2022-11-03T00:36:09.704Z,0.00
2022-11-03T00:37:09.682Z,0.00
2022-11-03T00:38:09.659Z,0.00
2022-11-03T00:39:09.636Z,0.00
2022-11-03T00:40:09.621Z,0.00
2022-11-03T00:41:09.600Z,0.00
2022-11-03T00:42:09.577Z,0.00
2022-11-03T00:43:09.578Z,0.00
2022-11-03T00:44:09.537Z,0.00
2022-11-03T00:45:09.515Z,0.00
2022-11-03T00:46:09.499Z,0.00
2022-11-03T00:47:09.473Z,0.00
2022-11-03T00:48:09.477Z,0.00
2022-11-03T00:49:09.435Z,0.00
2022-11-03T00:50:09.419Z,0.00
2022-11-03T00:51:09.393Z,0.00
2022-11-03T00:52:09.375Z,0.00
2022-11-03T00:53:09.359Z,0.00
2022-11-03T00:54:09.339Z,0.00
2022-11-03T00:55:09.319Z,0.00
2022-11-03T00:56:09.297Z,0.00
2022-11-03T00:57:09.273Z,0.00
2022-11-03T00:58:09.251Z,0.00
2022-11-03T00:59:09.258Z,0.00
2022-11-03T01:00:09.211Z,0.00
2022-11-03T01:01:09.241Z,0.00
2022-11-03T01:02:09.280Z,0.00
2022-11-03T01:03:09.239Z,0.00
2022-11-03T01:04:09.134Z,0.00
2022-11-03T01:05:09.110Z,0.00
2022-11-03T01:06:09.090Z,0.00
2022-11-03T01:07:09.072Z,0.00
2022-11-03T01:08:09.044Z,0.00
2022-11-03T01:09:09.028Z,0.00
2022-11-03T01:10:09.009Z,0.00
2022-11-03T01:11:08.987Z,0.00
2022-11-03T01:12:08.971Z,0.00
2022-11-03T01:13:09.144Z,0.00
2022-11-03T01:14:08.930Z,0.00
2022-11-03T01:15:08.923Z,0.00
2022-11-03T01:16:08.882Z,0.00
2022-11-03T01:17:08.863Z,0.00
2022-11-03T01:18:08.855Z,0.00
2022-11-03T01:19:08.820Z,0.00
2022-11-03T01:20:08.799Z,0.00
2022-11-03T01:21:08.782Z,0.00
2022-11-03T01:22:10.965Z,0.00
2022-11-03T01:23:09.046Z,0.00
2022-11-03T01:24:08.721Z,0.00
2022-11-03T01:25:08.700Z,0.00
2022-11-03T01:26:08.682Z,0.00
2022-11-03T01:27:08.662Z,0.00
2022-11-03T01:28:08.653Z,0.00
2022-11-03T01:29:08.617Z,0.00
2022-11-03T01:30:08.601Z,0.00
2022-11-03T01:31:08.599Z,0.00
2022-11-03T01:32:08.562Z,0.00
2022-11-03T01:33:08.963Z,0.00
2022-11-03T01:34:08.515Z,0.00
2022-11-03T01:35:08.495Z,0.00
2022-11-03T01:36:08.476Z,0.00
2022-11-03T01:37:08.460Z,0.00
2022-11-03T01:38:08.436Z,0.00
2022-11-03T01:39:08.413Z,0.00
2022-11-03T01:40:08.396Z,0.00
2022-11-03T01:41:08.374Z,0.00
2022-11-03T01:42:08.352Z,0.00
2022-11-03T01:43:08.601Z,0.00
2022-11-03T01:44:08.322Z,0.00
2022-11-03T01:45:08.292Z,0.00
2022-11-03T01:46:08.270Z,0.00
2022-11-03T01:47:08.276Z,0.00
2022-11-03T01:48:08.235Z,0.00
2022-11-03T01:49:08.210Z,0.00
2022-11-03T01:50:08.188Z,0.00
2022-11-03T01:51:08.172Z,0.00
2022-11-03T01:52:08.160Z,0.00
2022-11-03T01:53:08.537Z,0.00
2022-11-03T01:54:08.112Z,0.00
2022-11-03T01:55:08.091Z,0.00
2022-11-03T01:56:08.074Z,0.00
2022-11-03T01:57:08.052Z,0.00
2022-11-03T01:58:08.026Z,0.00
2022-11-03T01:59:08.010Z,0.00
2022-11-03T02:00:07.989Z,0.00
2022-11-03T02:01:08.036Z,0.00
2022-11-03T02:02:08.090Z,0.00
2022-11-03T02:03:08.367Z,0.00
2022-11-03T02:04:07.902Z,0.00
2022-11-03T02:05:07.886Z,0.00
2022-11-03T02:06:07.863Z,0.00
2022-11-03T02:07:07.851Z,0.00
2022-11-03T02:09:07.801Z,0.00
2022-11-03T02:10:07.779Z,0.00
2022-11-03T02:11:07.761Z,0.00
2022-11-03T02:12:07.743Z,0.00
2022-11-03T02:13:07.954Z,0.00
2022-11-03T02:14:07.701Z,0.00
2022-11-03T02:15:07.676Z,0.00
2022-11-03T02:16:07.658Z,0.00
2022-11-03T02:17:07.642Z,0.00
2022-11-03T02:18:07.619Z,0.00
2022-11-03T02:19:07.628Z,0.00
2022-11-03T02:20:07.575Z,0.00
2022-11-03T02:21:07.560Z,0.00
2022-11-03T02:22:07.544Z,0.00
2022-11-03T02:23:07.885Z,0.00
2022-11-03T02:24:07.509Z,0.00
2022-11-03T02:25:07.481Z,0.00
2022-11-03T02:26:07.456Z,0.00
2022-11-03T02:27:07.434Z,0.00
2022-11-03T02:28:07.414Z,0.00
2022-11-03T02:29:07.397Z,0.00
2022-11-03T02:30:07.376Z,0.00
2022-11-03T02:31:07.354Z,0.00
2022-11-03T02:32:07.331Z,0.00
2022-11-03T02:33:07.588Z,0.00
2022-11-03T02:34:07.293Z,0.00
2022-11-03T02:35:07.292Z,0.00
2022-11-03T02:36:07.258Z,0.00
2022-11-03T02:37:07.250Z,0.00
2022-11-03T02:38:07.213Z,0.00
2022-11-03T02:39:07.191Z,0.00
2022-11-03T02:40:07.165Z,0.00
2022-11-03T02:41:07.151Z,0.00
2022-11-03T02:42:07.128Z,0.00
2022-11-03T02:43:07.532Z,0.00
2022-11-03T02:44:07.086Z,0.00
2022-11-03T02:45:07.070Z,0.00
2022-11-03T02:46:07.046Z,0.00
2022-11-03T02:47:07.027Z,0.00
2022-11-03T02:48:07.003Z,0.00
2022-11-03T02:49:06.987Z,0.00
2022-11-03T02:50:06.966Z,0.00
2022-11-03T02:51:06.965Z,0.00
2022-11-03T02:52:06.922Z,0.00
2022-11-03T02:53:07.133Z,0.00
2022-11-03T02:54:06.883Z,0.00
2022-11-03T02:55:06.864Z,0.00
2022-11-03T02:56:06.843Z,0.00
2022-11-03T02:57:06.822Z,0.00
2022-11-03T02:58:06.803Z,0.00
2022-11-03T02:59:06.783Z,0.00
2022-11-03T03:00:06.762Z,0.00
2022-11-03T03:01:06.843Z,0.00
2022-11-03T03:02:06.969Z,0.00
2022-11-03T03:03:07.076Z,0.00
2022-11-03T03:04:06.684Z,0.00
2022-11-03T03:05:06.658Z,0.00
2022-11-03T03:06:06.634Z,0.00
2022-11-03T03:07:06.637Z,0.00
2022-11-03T03:08:06.595Z,0.00
2022-11-03T03:09:06.570Z,0.00
2022-11-03T03:10:06.555Z,0.00
2022-11-03T03:11:06.530Z,0.00
2022-11-03T03:12:06.546Z,0.00
2022-11-03T03:13:06.743Z,0.00
2022-11-03T03:14:06.471Z,0.00
2022-11-03T03:15:06.455Z,0.00
2022-11-03T03:16:06.424Z,0.00
2022-11-03T03:17:06.411Z,0.00
2022-11-03T03:18:06.395Z,0.00
2022-11-03T03:19:06.367Z,0.00
2022-11-03T03:20:06.343Z,0.00
2022-11-03T03:21:06.325Z,0.00
2022-11-03T03:22:06.301Z,0.00
2022-11-03T03:23:11.317Z,0.00
2022-11-03T03:24:06.261Z,0.00
2022-11-03T03:25:06.244Z,0.00
2022-11-03T03:26:06.222Z,0.00
2022-11-03T03:27:06.201Z,0.00
2022-11-03T03:28:06.178Z,0.00
2022-11-03T03:29:06.159Z,0.00
2022-11-03T03:30:06.142Z,0.00
2022-11-03T03:31:06.122Z,0.00
2022-11-03T03:32:06.102Z,0.00
2022-11-03T03:33:06.383Z,0.00
2022-11-03T03:34:23.629Z,0.00
2022-11-03T03:35:06.045Z,0.00
2022-11-03T03:36:06.015Z,0.00
2022-11-03T03:37:05.997Z,0.00
2022-11-03T03:38:06.291Z,0.00
2022-11-03T03:39:05.975Z,0.00
2022-11-03T03:40:05.933Z,0.00
2022-11-03T03:41:10.531Z,0.00
2022-11-03T03:42:05.894Z,0.00
2022-11-03T03:43:05.876Z,0.00
2022-11-03T03:44:05.851Z,0.00
2022-11-03T03:45:05.833Z,0.00
2022-11-03T03:46:05.816Z,0.00
2022-11-03T03:47:05.790Z,0.00
2022-11-03T03:48:05.802Z,0.00
2022-11-03T03:49:05.754Z,0.00
2022-11-03T03:50:05.733Z,0.00
2022-11-03T03:51:05.709Z,0.00
2022-11-03T03:52:05.687Z,0.00
2022-11-03T03:53:05.667Z,0.00
2022-11-03T03:54:05.649Z,0.00
2022-11-03T03:55:05.648Z,0.00
2022-11-03T03:56:05.613Z,0.00
2022-11-03T03:57:05.586Z,0.00
2022-11-03T03:58:05.890Z,0.00
2022-11-03T03:59:05.540Z,0.00
2022-11-03T04:00:05.521Z,0.00
2022-11-03T04:01:05.582Z,0.00
2022-11-03T04:02:05.616Z,0.00
2022-11-03T04:03:05.463Z,0.00
2022-11-03T04:04:05.438Z,0.00
2022-11-03T04:05:05.419Z,0.00
2022-11-03T04:06:05.398Z,0.00
2022-11-03T04:07:05.380Z,0.00
2022-11-03T04:08:05.611Z,0.00
2022-11-03T04:09:05.340Z,0.00
2022-11-03T04:10:05.317Z,0.00
2022-11-03T04:11:05.317Z,0.00
2022-11-03T04:12:05.276Z,0.00
2022-11-03T04:13:05.261Z,0.00
2022-11-03T04:14:05.253Z,0.00
2022-11-03T04:15:05.216Z,0.00
2022-11-03T04:16:05.194Z,0.00
2022-11-03T04:17:05.180Z,0.00
2022-11-03T04:18:05.510Z,0.00
2022-11-03T04:19:05.128Z,0.00
2022-11-03T04:20:05.117Z,0.00
2022-11-03T04:21:05.100Z,0.00
2022-11-03T04:22:05.069Z,0.00
2022-11-03T04:23:05.048Z,0.00
2022-11-03T04:24:05.026Z,0.00
2022-11-03T04:25:05.009Z,0.00
2022-11-03T04:26:04.985Z,0.00
2022-11-03T04:27:04.987Z,0.00
2022-11-03T04:28:05.179Z,0.00
2022-11-03T04:29:04.930Z,0.00
2022-11-03T04:30:04.908Z,0.00
2022-11-03T04:31:04.885Z,0.00
2022-11-03T04:32:04.868Z,0.00
2022-11-03T04:33:04.846Z,0.00
2022-11-03T04:34:04.826Z,0.00
2022-11-03T04:35:04.804Z,0.00
2022-11-03T04:36:04.779Z,0.00
2022-11-03T04:37:04.762Z,0.00
2022-11-03T04:38:05.096Z,0.00
2022-11-03T04:39:04.724Z,0.00
2022-11-03T04:40:04.704Z,0.00
2022-11-03T04:41:04.686Z,0.00
2022-11-03T04:42:04.665Z,0.00
2022-11-03T04:43:05.110Z,0.00
2022-11-03T04:44:04.620Z,0.00
2022-11-03T04:45:04.602Z,0.00
2022-11-03T04:46:04.584Z,0.00
2022-11-03T04:47:04.562Z,0.00
2022-11-03T04:48:04.543Z,0.00
2022-11-03T04:49:04.517Z,0.00
2022-11-03T04:50:04.502Z,0.00
2022-11-03T04:51:04.477Z,0.00
2022-11-03T04:52:04.456Z,0.00
2022-11-03T04:53:04.685Z,0.00
2022-11-03T04:54:04.416Z,0.00
2022-11-03T04:55:04.397Z,0.00
2022-11-03T04:56:07.425Z,0.00
2022-11-03T04:57:04.353Z,0.00
2022-11-03T04:58:04.334Z,0.00
2022-11-03T04:59:04.328Z,0.00
2022-11-03T05:00:04.297Z,0.00
2022-11-03T05:01:04.359Z,0.00
2022-11-03T05:02:04.408Z,0.00
2022-11-03T05:03:04.247Z,0.00
2022-11-03T05:04:04.213Z,0.00
2022-11-03T05:05:04.197Z,0.00
2022-11-03T05:06:04.173Z,0.00
2022-11-03T05:07:04.154Z,0.00
2022-11-03T05:08:04.135Z,0.00
2022-11-03T05:09:04.110Z,0.00
2022-11-03T05:10:04.088Z,0.00
2022-11-03T05:11:04.071Z,0.00
2022-11-03T05:12:04.052Z,0.00
2022-11-03T05:13:04.288Z,0.00
2022-11-03T05:14:04.007Z,0.00
2022-11-03T05:15:04.084Z,0.00
2022-11-03T05:16:03.971Z,0.00
2022-11-03T05:17:03.950Z,0.00
2022-11-03T05:18:03.927Z,0.00
2022-11-03T05:19:03.910Z,0.00
2022-11-03T05:20:03.885Z,0.00
2022-11-03T05:21:03.863Z,0.00
2022-11-03T05:22:03.848Z,0.00
2022-11-03T05:23:04.177Z,0.00
2022-11-03T05:24:03.906Z,0.00
2022-11-03T05:25:03.783Z,0.00
2022-11-03T05:26:03.766Z,0.00
2022-11-03T05:27:03.747Z,0.00
2022-11-03T05:28:03.949Z,0.00
2022-11-03T05:29:03.699Z,0.00
2022-11-03T05:30:03.682Z,0.00
2022-11-03T05:31:03.682Z,0.00
2022-11-03T05:32:03.641Z,0.00
2022-11-03T05:33:03.626Z,0.00
2022-11-03T05:34:03.600Z,0.00
2022-11-03T05:35:03.583Z,0.00
2022-11-03T05:36:03.564Z,0.00
2022-11-03T05:37:03.541Z,0.00
2022-11-03T05:38:03.783Z,0.00
2022-11-03T05:39:03.504Z,0.00
2022-11-03T05:40:03.481Z,0.00
2022-11-03T05:41:03.461Z,0.00
2022-11-03T05:42:03.442Z,0.00
2022-11-03T05:43:06.244Z,0.00
2022-11-03T05:44:03.397Z,0.00
2022-11-03T05:45:03.375Z,0.00
2022-11-03T05:46:03.460Z,0.00
2022-11-03T05:47:05.976Z,0.00
2022-11-03T05:48:03.754Z,0.00
2022-11-03T05:49:03.297Z,0.00
2022-11-03T05:50:03.277Z,0.00
2022-11-03T05:51:03.252Z,0.00
2022-11-03T05:52:03.233Z,0.00
2022-11-03T05:53:03.213Z,0.00
2022-11-03T05:54:03.187Z,0.00
2022-11-03T05:55:03.180Z,0.00
2022-11-03T05:56:03.152Z,4.00
2022-11-03T05:57:03.134Z,4.00
2022-11-03T05:58:03.229Z,0.00
2022-11-03T05:59:03.089Z,0.00
2022-11-03T06:00:03.067Z,4.00
2022-11-03T06:01:03.045Z,4.00
2022-11-03T06:02:03.140Z,0.00
2022-11-03T06:03:03.124Z,4.00
2022-11-03T06:04:02.986Z,4.00
2022-11-03T06:05:02.965Z,4.00
2022-11-03T06:06:02.957Z,4.00
2022-11-03T06:07:02.929Z,8.00
2022-11-03T06:08:02.947Z,8.00
2022-11-03T06:09:02.892Z,8.00
2022-11-03T06:10:02.865Z,8.00
2022-11-03T06:11:02.846Z,12.00
2022-11-03T06:12:02.824Z,16.00
2022-11-03T06:13:02.808Z,16.00
2022-11-03T06:14:02.786Z,20.00
2022-11-03T06:15:02.766Z,24.00
2022-11-03T06:16:02.744Z,24.00
2022-11-03T06:17:02.724Z,24.00
2022-11-03T06:18:02.699Z,24.00
2022-11-03T06:19:02.701Z,32.00
2022-11-03T06:20:02.660Z,32.00
2022-11-03T06:21:02.641Z,32.00
2022-11-03T06:22:02.621Z,36.00
2022-11-03T06:23:02.599Z,36.00
2022-11-03T06:24:02.585Z,40.00
2022-11-03T06:25:02.562Z,44.00
2022-11-03T06:26:02.540Z,44.00
2022-11-03T06:27:02.517Z,44.00
2022-11-03T06:28:02.497Z,44.00
2022-11-03T06:29:02.485Z,48.00
2022-11-03T06:30:02.587Z,56.00
2022-11-03T06:31:02.436Z,56.00
2022-11-03T06:32:02.417Z,64.00
2022-11-03T06:33:02.397Z,64.00
2022-11-03T06:34:02.376Z,72.00
2022-11-03T06:35:02.383Z,80.00
2022-11-03T06:36:02.337Z,84.00
2022-11-03T06:37:02.318Z,92.00
2022-11-03T06:38:02.299Z,100.00
2022-11-03T06:39:02.299Z,108.00
2022-11-03T06:40:02.254Z,116.00
2022-11-03T06:41:02.240Z,124.00
2022-11-03T06:42:02.218Z,136.00
2022-11-03T06:43:02.196Z,144.00
2022-11-03T06:44:02.174Z,156.00
2022-11-03T06:45:02.173Z,168.00
2022-11-03T06:46:02.142Z,180.00
2022-11-03T06:47:02.116Z,192.00
2022-11-03T06:48:02.093Z,204.00
2022-11-03T06:49:02.074Z,220.00
2022-11-03T06:50:02.063Z,236.00
2022-11-03T06:51:02.055Z,248.00
2022-11-03T06:52:02.013Z,260.00
2022-11-03T06:53:02.001Z,272.00
2022-11-03T06:54:01.974Z,280.00
2022-11-03T06:55:01.956Z,292.00
2022-11-03T06:56:01.929Z,304.00
2022-11-03T06:57:01.912Z,308.00
2022-11-03T06:58:01.887Z,320.00
2022-11-03T06:59:01.873Z,328.00
2022-11-03T07:00:20.283Z,336.00
2022-11-03T07:01:03.736Z,348.00
2022-11-03T07:02:01.957Z,356.00
2022-11-03T07:03:01.793Z,360.00
2022-11-03T07:04:01.773Z,364.00
2022-11-03T07:05:01.748Z,368.00
2022-11-03T07:06:01.731Z,372.00
2022-11-03T07:07:01.732Z,380.00
2022-11-03T07:08:01.690Z,388.00
2022-11-03T07:09:01.669Z,408.00
2022-11-03T07:10:01.647Z,424.00
2022-11-03T07:11:01.627Z,448.00
2022-11-03T07:12:01.608Z,472.00
2022-11-03T07:13:06.758Z,496.00
2022-11-03T07:14:01.567Z,520.00
2022-11-03T07:15:01.588Z,540.00
2022-11-03T07:16:01.537Z,556.00
2022-11-03T07:17:01.513Z,568.00
2022-11-03T07:18:01.487Z,572.00
2022-11-03T07:19:01.467Z,572.00
2022-11-03T07:20:01.449Z,572.00
2022-11-03T07:21:01.425Z,572.00
2022-11-03T07:22:01.410Z,568.00
2022-11-03T07:23:01.400Z,568.00
2022-11-03T07:24:01.360Z,568.00
2022-11-03T07:25:01.345Z,568.00
2022-11-03T07:26:01.319Z,564.00
2022-11-03T07:27:01.305Z,564.00
2022-11-03T07:28:01.278Z,560.00
2022-11-03T07:29:01.263Z,564.00
2022-11-03T07:30:01.249Z,564.00
2022-11-03T07:31:01.224Z,572.00
2022-11-03T07:32:01.199Z,584.00
2022-11-03T07:33:01.180Z,604.00
2022-11-03T07:34:01.174Z,624.00
2022-11-03T07:35:01.143Z,640.00
2022-11-03T07:36:14.923Z,656.00
2022-11-03T07:37:01.221Z,680.00
2022-11-03T07:38:01.081Z,704.00
2022-11-03T07:39:01.090Z,720.00
2022-11-03T07:40:01.052Z,740.00
2022-11-03T07:41:01.024Z,752.00
2022-11-03T07:42:01.021Z,764.00
2022-11-03T07:43:00.979Z,776.00
2022-11-03T07:44:00.961Z,788.00
2022-11-03T07:45:00.940Z,800.00
2022-11-03T07:46:00.921Z,816.00
2022-11-03T07:47:00.899Z,828.00
2022-11-03T07:48:04.302Z,844.00
2022-11-03T07:49:00.860Z,864.00
2022-11-03T07:50:00.841Z,884.00
2022-11-03T07:51:00.823Z,892.00
2022-11-03T07:52:00.796Z,904.00
2022-11-03T07:53:00.776Z,916.00
2022-11-03T07:54:00.752Z,932.00
2022-11-03T07:55:00.755Z,952.00
2022-11-03T07:56:00.802Z,972.00
2022-11-03T07:57:00.695Z,1000.00
2022-11-03T07:58:00.681Z,1040.00
2022-11-03T07:59:00.655Z,1096.00
2022-11-03T08:00:02.685Z,1180.00
2022-11-03T08:01:00.614Z,1260.00
2022-11-03T08:02:00.801Z,1312.00
2022-11-03T08:03:00.590Z,1368.00
2022-11-03T08:04:00.556Z,1424.00
2022-11-03T08:05:00.527Z,1472.00
2022-11-03T08:06:02.730Z,1500.00
2022-11-03T08:07:00.494Z,1520.00
2022-11-03T08:08:00.478Z,1532.00
2022-11-03T08:09:00.471Z,1520.00
2022-11-03T08:10:00.441Z,1492.00
2022-11-03T08:11:00.550Z,1444.00
2022-11-03T08:12:00.398Z,1384.00
2022-11-03T08:13:00.379Z,1308.00
2022-11-03T08:14:00.356Z,1244.00
2022-11-03T08:15:00.339Z,1188.00
2022-11-03T08:16:00.314Z,1156.00
2022-11-03T08:17:00.293Z,1116.00
2022-11-03T08:18:00.276Z,1092.00
2022-11-03T08:19:00.261Z,1068.00
2022-11-03T08:20:00.239Z,1044.00
2022-11-03T08:21:00.218Z,1024.00
2022-11-03T08:22:00.200Z,1012.00
2022-11-03T08:23:20.091Z,1000.00
2022-11-03T08:24:00.159Z,992.00
2022-11-03T08:25:00.162Z,992.00
2022-11-03T08:26:00.122Z,1000.00
2022-11-03T08:27:00.120Z,1032.00
2022-11-03T08:28:00.081Z,1088.00
2022-11-03T08:29:00.060Z,1168.00
2022-11-03T08:30:00.036Z,1276.00
2022-11-03T08:31:02.108Z,1412.00
2022-11-03T08:32:00.004Z,1588.00
2022-11-03T08:32:59.977Z,1840.00
2022-11-03T08:33:59.958Z,2320.00
2022-11-03T08:34:59.955Z,3240.00
2022-11-03T08:35:59.919Z,4552.00
2022-11-03T08:36:59.901Z,6372.00
2022-11-03T08:37:59.881Z,6548.00
2022-11-03T08:38:59.860Z,7348.00
2022-11-03T08:39:59.839Z,9228.00
2022-11-03T08:40:59.827Z,7724.00
2022-11-03T08:41:59.800Z,7008.00
2022-11-03T08:42:59.806Z,5372.00
2022-11-03T08:43:59.767Z,4508.00
2022-11-03T08:44:59.753Z,4308.00
2022-11-03T08:46:08.419Z,4220.00
2022-11-03T08:46:59.706Z,4360.00
2022-11-03T08:47:59.691Z,4016.00
2022-11-03T08:48:59.670Z,4064.00
2022-11-03T08:49:59.650Z,4124.00
2022-11-03T08:50:59.628Z,3468.00
2022-11-03T08:51:59.614Z,3296.00
2022-11-03T08:52:59.595Z,3100.00
2022-11-03T08:53:59.588Z,2848.00
2022-11-03T08:54:59.587Z,2704.00
2022-11-03T08:55:59.739Z,2600.00
2022-11-03T08:56:59.519Z,2520.00
2022-11-03T08:57:59.499Z,2452.00
2022-11-03T08:58:59.552Z,2316.00
2022-11-03T08:59:59.515Z,2240.00
2022-11-03T09:00:59.439Z,2220.00
2022-11-03T09:01:59.486Z,2252.00
2022-11-03T09:02:59.419Z,2240.00
2022-11-03T09:03:59.442Z,2392.00
2022-11-03T09:04:59.360Z,2496.00
2022-11-03T09:05:59.351Z,2604.00
2022-11-03T09:06:59.325Z,2700.00
2022-11-03T09:10:59.250Z,2756.00
2022-11-03T09:11:59.229Z,2784.00
2022-11-03T09:12:59.213Z,2744.00
2022-11-03T09:13:59.193Z,2764.00
2022-11-03T09:14:59.194Z,2672.00
2022-11-03T09:15:59.152Z,2456.00
2022-11-03T09:16:59.167Z,2356.00
2022-11-03T09:17:59.114Z,2236.00
2022-11-03T09:18:59.096Z,2152.00
2022-11-03T09:19:59.073Z,2116.00
2022-11-03T09:20:59.069Z,2096.00
2022-11-03T09:21:59.048Z,2116.00
2022-11-03T09:22:59.030Z,2140.00
2022-11-03T09:23:59.007Z,2148.00
2022-11-03T09:24:58.985Z,2168.00
2022-11-03T09:25:58.972Z,2224.00
2022-11-03T09:27:02.145Z,2304.00
2022-11-03T09:27:58.949Z,2384.00
2022-11-03T09:28:58.909Z,2464.00
2022-11-03T09:30:12.892Z,2520.00
2022-11-03T09:30:58.909Z,2556.00
2022-11-03T09:31:58.848Z,2520.00
2022-11-03T09:32:58.834Z,2456.00
2022-11-03T09:33:58.823Z,2352.00
2022-11-03T09:34:58.793Z,2240.00
2022-11-03T09:35:58.786Z,2148.00
2022-11-03T09:36:58.779Z,2080.00
2022-11-03T09:37:58.737Z,2016.00
2022-11-03T09:38:58.722Z,1932.00
2022-11-03T09:39:58.703Z,1840.00
2022-11-03T09:40:58.682Z,1748.00
2022-11-03T09:41:59.432Z,1672.00
2022-11-03T09:42:58.646Z,1632.00
2022-11-03T09:43:58.631Z,1624.00
2022-11-03T09:44:58.610Z,1636.00
2022-11-03T09:45:58.599Z,1668.00
2022-11-03T09:46:58.720Z,1708.00
2022-11-03T09:47:58.562Z,1772.00
2022-11-03T09:48:58.531Z,1852.00
2022-11-03T09:49:58.511Z,1924.00
2022-11-03T09:50:58.508Z,2000.00
2022-11-03T09:51:58.478Z,2056.00
2022-11-03T09:52:58.465Z,2076.00
2022-11-03T09:53:58.441Z,2084.00
2022-11-03T09:54:58.421Z,2100.00
2022-11-03T09:55:58.400Z,2120.00
2022-11-03T09:56:58.377Z,2144.00
2022-11-03T09:57:58.364Z,2172.00
2022-11-03T09:58:58.343Z,2188.00
2022-11-03T09:59:58.328Z,2180.00
2022-11-03T10:00:58.391Z,2160.00
2022-11-03T10:01:58.377Z,2148.00
2022-11-03T10:02:58.289Z,2164.00
2022-11-03T10:03:58.256Z,2204.00
2022-11-03T10:04:58.291Z,2272.00
2022-11-03T10:05:58.211Z,2368.00
2022-11-03T10:06:58.187Z,2532.00
2022-11-03T10:07:58.212Z,2756.00
2022-11-03T10:08:58.155Z,2904.00
2022-11-03T10:09:58.153Z,3060.00
2022-11-03T10:10:58.121Z,3148.00
2022-11-03T10:11:58.103Z,3200.00
2022-11-03T10:12:58.092Z,3196.00
2022-11-03T10:13:58.065Z,3120.00
2022-11-03T10:14:58.043Z,3080.00
2022-11-03T10:15:58.028Z,3136.00
2022-11-03T10:16:58.020Z,3324.00
2022-11-03T10:17:57.992Z,3480.00
2022-11-03T10:18:57.988Z,3508.00
2022-11-03T10:19:57.951Z,3448.00
2022-11-03T10:20:57.938Z,3444.00
2022-11-03T10:21:57.915Z,3628.00
2022-11-03T10:22:57.918Z,3768.00
2022-11-03T10:23:57.908Z,3604.00
2022-11-03T10:24:57.867Z,3572.00
2022-11-03T10:25:57.840Z,3484.00
2022-11-03T10:26:57.826Z,3224.00
2022-11-03T10:27:57.824Z,3080.00
2022-11-03T10:28:57.807Z,3008.00
2022-11-03T10:29:58.161Z,2904.00
2022-11-03T10:31:13.695Z,2824.00
2022-11-03T10:31:57.735Z,2744.00
2022-11-03T10:32:57.716Z,2688.00
2022-11-03T10:33:57.705Z,2676.00
2022-11-03T10:34:57.703Z,2660.00
2022-11-03T10:35:57.660Z,2704.00
2022-11-03T10:36:57.644Z,2768.00
2022-11-03T10:37:57.625Z,2812.00
2022-11-03T10:38:57.618Z,2920.00
2022-11-03T10:39:57.592Z,3200.00
2022-11-03T10:40:57.579Z,3744.00
2022-11-03T10:41:57.562Z,4196.00
2022-11-03T10:42:57.538Z,4396.00
2022-11-03T10:43:57.516Z,4700.00
2022-11-03T10:44:57.503Z,4968.00
2022-11-03T10:45:57.481Z,5152.00
2022-11-03T10:46:57.464Z,5336.00
2022-11-03T10:48:00.525Z,5464.00
2022-11-03T10:48:57.504Z,5344.00
2022-11-03T10:49:57.416Z,5404.00
2022-11-03T10:50:57.421Z,5328.00
2022-11-03T10:51:57.378Z,5076.00
2022-11-03T10:52:57.370Z,4952.00
2022-11-03T10:53:57.344Z,4548.00
2022-11-03T10:54:57.338Z,4076.00
2022-11-03T10:55:57.313Z,3732.00
2022-11-03T10:56:57.294Z,3480.00
2022-11-03T10:57:57.283Z,3276.00
2022-11-03T10:59:57.245Z,2964.00
2022-11-03T11:00:57.275Z,2824.00
2022-11-03T11:01:57.380Z,2676.00
2022-11-03T11:02:57.194Z,2516.00
2022-11-03T11:03:57.222Z,2360.00
2022-11-03T11:04:57.168Z,2236.00
2022-11-03T11:05:57.145Z,2128.00
2022-11-03T11:06:57.147Z,2032.00
2022-11-03T11:07:57.189Z,1972.00
2022-11-03T11:08:59.912Z,1948.00
2022-11-03T11:09:57.073Z,1928.00
2022-11-03T11:10:57.063Z,1876.00
2022-11-03T11:11:57.042Z,1864.00
2022-11-03T11:12:57.026Z,1768.00
2022-11-03T11:13:57.005Z,1612.00
2022-11-03T11:14:56.987Z,1592.00
2022-11-03T11:15:56.987Z,1636.00
2022-11-03T11:16:56.951Z,1628.00
2022-11-03T11:17:56.936Z,1556.00
2022-11-03T11:18:56.912Z,1448.00
2022-11-03T11:19:56.909Z,1348.00
2022-11-03T11:20:56.876Z,1288.00
2022-11-03T11:21:56.858Z,1260.00
2022-11-03T11:22:56.860Z,1252.00
2022-11-03T11:23:56.823Z,1260.00
2022-11-03T11:24:56.804Z,1264.00
2022-11-03T11:25:56.788Z,1284.00
2022-11-03T11:26:56.770Z,1288.00
2022-11-03T11:27:58.221Z,1304.00
2022-11-03T11:28:56.732Z,1340.00
2022-11-03T11:29:56.713Z,1404.00
2022-11-03T11:30:56.697Z,1476.00
2022-11-03T11:31:56.680Z,1556.00
2022-11-03T11:32:56.668Z,1632.00
2022-11-03T11:33:56.640Z,1720.00
2022-11-03T11:34:56.624Z,1796.00
2022-11-03T11:35:59.266Z,1852.00
2022-11-03T11:36:56.592Z,1876.00
2022-11-03T11:37:56.572Z,1892.00
2022-11-03T11:38:56.574Z,1904.00
2022-11-03T11:39:56.533Z,1904.00
2022-11-03T11:40:56.515Z,1888.00
2022-11-03T11:41:56.496Z,1852.00
2022-11-03T11:42:56.506Z,1812.00
2022-11-03T11:43:56.465Z,1760.00
2022-11-03T11:44:56.449Z,1696.00
2022-11-03T11:45:56.442Z,1612.00
2022-11-03T11:46:56.486Z,1528.00
2022-11-03T11:47:56.387Z,1452.00
2022-11-03T11:48:56.373Z,1384.00
2022-11-03T11:49:56.352Z,1328.00
2022-11-03T11:50:56.330Z,1284.00
2022-11-03T11:51:56.326Z,1252.00
2022-11-03T11:52:56.303Z,1244.00
2022-11-03T11:54:16.679Z,1240.00
2022-11-03T11:54:56.287Z,1248.00
2022-11-03T11:55:56.242Z,1264.00
2022-11-03T11:56:56.221Z,1268.00
2022-11-03T11:57:56.203Z,1280.00
2022-11-03T11:58:56.187Z,1288.00
2022-11-03T11:59:56.173Z,1292.00
2022-11-03T12:00:56.153Z,1280.00
2022-11-03T12:01:56.236Z,1236.00
2022-11-03T12:02:56.123Z,1192.00
2022-11-03T12:03:56.252Z,1156.00
2022-11-03T12:04:56.080Z,1144.00
2022-11-03T12:05:56.064Z,1148.00
2022-11-03T12:06:56.086Z,1168.00
2022-11-03T12:07:56.035Z,1188.00
2022-11-03T12:08:56.005Z,1204.00
2022-11-03T12:09:55.988Z,1212.00
2022-11-03T12:10:56.036Z,1228.00
2022-11-03T12:11:56.356Z,1268.00
2022-11-03T12:12:55.937Z,1440.00
2022-11-03T12:13:55.910Z,1396.00
2022-11-03T12:14:55.896Z,1508.00
2022-11-03T12:15:55.874Z,1584.00
2022-11-03T12:16:55.857Z,1692.00
2022-11-03T12:17:55.843Z,1924.00
2022-11-03T12:18:55.821Z,2544.00
2022-11-03T12:19:55.805Z,2864.00
2022-11-03T12:20:55.787Z,2816.00
2022-11-03T12:21:55.762Z,3208.00
2022-11-03T12:22:55.749Z,3216.00
2022-11-03T12:23:55.729Z,3672.00
2022-11-03T12:24:55.716Z,4072.00
2022-11-03T12:25:55.694Z,4696.00
2022-11-03T12:26:55.695Z,4784.00
2022-11-03T12:27:55.657Z,5740.00
2022-11-03T12:28:55.642Z,6076.00
2022-11-03T12:29:55.626Z,7088.00
2022-11-03T12:30:55.670Z,7352.00
2022-11-03T12:31:55.593Z,7620.00
2022-11-03T12:32:55.568Z,6364.00
2022-11-03T12:33:55.553Z,7732.00
2022-11-03T12:34:55.535Z,6728.00
2022-11-03T12:35:55.516Z,6740.00
2022-11-03T12:36:56.497Z,8692.00
2022-11-03T12:37:55.481Z,8580.00
2022-11-03T12:38:55.464Z,8340.00
2022-11-03T12:39:55.455Z,8380.00
2022-11-03T12:40:55.440Z,7964.00
2022-11-03T12:41:55.418Z,7956.00
2022-11-03T12:42:55.420Z,6632.00
2022-11-03T12:43:55.423Z,4360.00
2022-11-03T12:44:55.370Z,3012.00
2022-11-03T12:45:55.356Z,2572.00
2022-11-03T12:46:55.334Z,2228.00
2022-11-03T12:47:55.319Z,2004.00
2022-11-03T12:48:55.315Z,1824.00